RYR694 LOWW-EGCC
Flight info
| Callsign | RYR694 |
|---|---|
| Flight time | N/A |
| Altitude | 38000 |
| Route | BUWUT1C/29 BUWUT DCT DITIS DCT OKG DCT VELIS DCT SWALM DCT TIVUN DCT DIBIR DCT GALSO Q63 ERING L179 LAM UN57 WELIN T420 ELVOS |
| Aircraft | B738/M-SDE2E3FGHIRWXY/LB1 |
Departure
| Time | 2026-04-25 19:16 |
|---|---|
| Airport | Vienna International Airport (LOWW) |
Arrival
| Time | N/A |
|---|---|
| Airport | Manchester Airport (EGCC) |
| Time | Latitude | Longitude | Altitude | Speed | Heading |
|---|---|---|---|---|---|
| 2026-04-25 18:38 | 48.11900 | 16.55762 | 612 ft | 0 kts | 349° |
| 2026-04-25 19:02 | 48.11887 | 16.55766 | 623 ft | 4 kts | 2° |
| 2026-04-25 19:03 | 48.11851 | 16.55736 | 615 ft | 4 kts | 22° |
| 2026-04-25 19:03 | 48.11823 | 16.55728 | 614 ft | 4 kts | 355° |
| 2026-04-25 19:03 | 48.11802 | 16.55740 | 619 ft | 4 kts | 300° |
| 2026-04-25 19:04 | 48.11799 | 16.55745 | 618 ft | 0 kts | 296° |
| 2026-04-25 19:08 | 48.11802 | 16.55738 | 619 ft | 4 kts | 296° |
| 2026-04-25 19:08 | 48.11821 | 16.55673 | 619 ft | 9 kts | 289° |
| 2026-04-25 19:09 | 48.11714 | 16.55724 | 612 ft | 10 kts | 115° |
| 2026-04-25 19:09 | 48.11693 | 16.55789 | 613 ft | 10 kts | 116° |
| 2026-04-25 19:09 | 48.11623 | 16.56007 | 621 ft | 10 kts | 116° |
| 2026-04-25 19:10 | 48.11593 | 16.56096 | 613 ft | 9 kts | 116° |
| 2026-04-25 19:10 | 48.11565 | 16.56183 | 618 ft | 9 kts | 116° |
| 2026-04-25 19:10 | 48.11538 | 16.56267 | 615 ft | 9 kts | 116° |
| 2026-04-25 19:10 | 48.11511 | 16.56349 | 611 ft | 9 kts | 116° |
| 2026-04-25 19:11 | 48.11485 | 16.56428 | 616 ft | 8 kts | 116° |
| 2026-04-25 19:11 | 48.11457 | 16.56512 | 618 ft | 10 kts | 115° |
| 2026-04-25 19:11 | 48.11415 | 16.56642 | 618 ft | 18 kts | 116° |
| 2026-04-25 19:11 | 48.11347 | 16.56849 | 612 ft | 25 kts | 116° |
| 2026-04-25 19:12 | 48.11271 | 16.57086 | 622 ft | 25 kts | 116° |
| 2026-04-25 19:12 | 48.11196 | 16.57316 | 618 ft | 23 kts | 116° |
| 2026-04-25 19:12 | 48.11126 | 16.57529 | 615 ft | 22 kts | 115° |
| 2026-04-25 19:12 | 48.11092 | 16.57630 | 615 ft | 4 kts | 127° |
| 2026-04-25 19:13 | 48.11068 | 16.57653 | 611 ft | 0 kts | 168° |
| 2026-04-25 19:14 | 48.11007 | 16.57625 | 608 ft | 18 kts | 205° |
| 2026-04-25 19:14 | 48.10926 | 16.57530 | 614 ft | 13 kts | 250° |
| 2026-04-25 19:15 | 48.10932 | 16.57482 | 611 ft | 0 kts | 296° |
| 2026-04-25 19:15 | 48.10956 | 16.57409 | 617 ft | 32 kts | 296° |
| 2026-04-25 19:15 | 48.11160 | 16.56751 | 619 ft | 97 kts | 294° |
| 2026-04-25 19:15 | 48.11510 | 16.55679 | 613 ft | 131 kts | 293° |
| 2026-04-25 19:16 | 48.11854 | 16.54351 | 762 ft | 136 kts | 287° |
| 2026-04-25 19:16 | 48.12109 | 16.52999 | 991 ft | 143 kts | 286° |
| 2026-04-25 19:16 | 48.12329 | 16.51428 | 1113 ft | 155 kts | 267° |
| 2026-04-25 19:16 | 48.12177 | 16.49899 | 1613 ft | 141 kts | 258° |
| 2026-04-25 19:17 | 48.11937 | 16.48443 | 1789 ft | 154 kts | 249° |
| 2026-04-25 19:17 | 48.11333 | 16.47047 | 1874 ft | 169 kts | 210° |
| 2026-04-25 19:17 | 48.10162 | 16.46761 | 2038 ft | 182 kts | 169° |
| 2026-04-25 19:17 | 48.08850 | 16.47000 | 2160 ft | 198 kts | 184° |
| 2026-04-25 19:18 | 48.07550 | 16.46232 | 2273 ft | 209 kts | 221° |
| 2026-04-25 19:18 | 48.06785 | 16.44360 | 2389 ft | 218 kts | 247° |
| 2026-04-25 19:18 | 48.06170 | 16.42226 | 2468 ft | 229 kts | 245° |